Time;durP1;ratioP1;P1;durP2;ratioP2;P2;SDS_P1;SDS_P2;PMS_P1;PMS_P2;Temp;Humidity;BMP_temperature;BMP_pressure;BME280_temperature;BME280_humidity;BME280_pressure;Samples;Min_cycle;Max_cycle;Signal;HPM_P1;HPM_P2
2021/12/25 00:01:01;;;;;;;5.80;1.90;;;;;;;-5.05;99.73;99770.91;5050959;58;1137011;-72
2021/12/25 00:06:08;;;;;;;14.60;2.90;;;;;;;-5.11;99.59;99786.52;5050731;58;1134912;-74
2021/12/25 00:11:14;;;;;;;10.43;2.87;;;;;;;-5.21;99.17;99797.95;5055760;58;1137422;-70
2021/12/25 00:16:21;;;;;;;7.23;2.87;;;;;;;-5.27;99.57;99798.54;5054837;57;1136830;-73
2021/12/25 00:21:27;;;;;;;10.00;3.20;;;;;;;-5.29;99.31;99805.45;4982705;58;1134879;-73
2021/12/25 00:31:55;;;;;;;6.25;2.37;;;;;;;-5.40;99.59;99819.91;4902883;60;1136925;-75
2021/12/25 00:36:54;;;;;;;10.27;3.80;;;;;;;-5.43;99.32;99818.24;4945767;59;1135079;-73
2021/12/25 00:42:01;;;;;;;8.17;2.93;;;;;;;-5.50;99.33;99830.84;4945894;59;1137315;-75
2021/12/25 00:47:07;;;;;;;4.67;2.10;;;;;;;-5.59;99.28;99845.24;4955461;59;1134941;-72
2021/12/25 00:52:13;;;;;;;6.80;2.50;;;;;;;-5.70;98.87;99845.49;4964552;59;1135331;-72
2021/12/25 00:57:19;;;;;;;14.30;4.73;;;;;;;-5.82;98.68;99870.23;4964393;59;1135147;-76
2021/12/25 01:02:24;;;;;;;26.07;7.30;;;;;;;-5.89;99.01;99876.41;4964523;59;1137404;-75
2021/12/25 01:07:30;;;;;;;21.33;4.40;;;;;;;-5.90;99.01;99887.59;4966796;59;1136886;-73
2021/12/25 01:12:53;;;;;;;16.77;4.53;;;;;;;-5.85;99.17;99890.05;4988488;58;1136956;-74
2021/12/25 01:39:17;;;;;;;12.27;4.80;;;;;;;-5.76;98.92;99926.73;4854800;59;1137039;-73
2021/12/25 01:49:53;;;;;;;16.60;5.37;;;;;;;-5.74;98.80;99935.28;5028926;57;1135016;-73
2021/12/25 01:55:04;;;;;;;19.83;6.30;;;;;;;-5.71;98.74;99944.23;4969901;58;1134854;-75
2021/12/25 02:00:20;;;;;;;17.00;5.33;;;;;;;-5.64;98.98;99951.81;5050470;57;1134803;-75
2021/12/25 02:05:26;;;;;;;13.32;4.55;;;;;;;-5.46;99.90;99961.73;5000312;59;1134970;-70
2021/12/25 02:10:32;;;;;;;18.07;4.63;;;;;;;-5.25;100.00;99975.46;4980049;59;1134981;-74
2021/12/25 02:15:41;;;;;;;10.67;4.13;;;;;;;-5.12;100.00;99982.03;4933033;60;1136840;-73
2021/12/25 02:25:58;;;;;;;114.40;23.47;;;;;;;-5.17;97.59;100005.77;4933077;59;1135052;-73
2021/12/25 02:31:09;;;;;;;27.27;7.67;;;;;;;-5.41;96.69;100005.86;4932907;60;1139113;-71
2021/12/25 02:36:17;;;;;;;68.55;23.70;;;;;;;-5.64;96.54;100011.91;4938148;60;1139065;-74
2021/12/25 02:41:23;;;;;;;60.50;21.33;;;;;;;-5.60;97.57;100020.43;5021047;58;1141328;-72
2021/12/25 02:46:30;;;;;;;91.97;33.83;;;;;;;-5.46;98.70;100021.00;5029868;58;1141247;-74
2021/12/25 02:51:36;;;;;;;67.70;31.87;;;;;;;-5.31;98.67;100030.55;5051844;57;1141196;-71
2021/12/25 02:56:42;;;;;;;16.03;6.77;;;;;;;-5.24;98.15;100036.44;5072230;57;1141151;-72
2021/12/25 03:01:48;;;;;;;13.98;5.95;;;;;;;-5.42;96.03;100035.09;5071800;57;1139051;-73
2021/12/25 03:06:54;;;;;;;31.37;10.17;;;;;;;-5.76;95.11;100043.06;5072187;57;1139225;-75
2021/12/25 03:12:02;;;;;;;45.53;16.63;;;;;;;-6.05;95.17;100057.80;5078254;57;1141133;-76
2021/12/25 03:17:08;;;;;;;47.98;16.50;;;;;;;-6.22;95.59;100073.52;5080478;57;1141072;-75
2021/12/25 03:22:15;;;;;;;20.27;8.47;;;;;;;-6.30;95.90;100077.11;5080163;58;1141279;-70
2021/12/25 03:27:22;;;;;;;23.93;6.63;;;;;;;-6.30;95.82;100075.83;4918520;59;1139032;-76
2021/12/25 03:32:27;;;;;;;9.93;3.77;;;;;;;-6.45;95.45;100068.77;4997125;58;1139022;-74
2021/12/25 03:37:33;;;;;;;26.17;10.13;;;;;;;-6.53;95.39;100080.03;4918587;60;1137028;-72
2021/12/25 03:42:39;;;;;;;46.67;14.77;;;;;;;-6.72;94.88;100083.30;4914382;60;1141324;-73
2021/12/25 03:47:47;;;;;;;13.80;5.47;;;;;;;-6.91;94.99;100092.17;4931738;59;1141347;-72
2021/12/25 03:53:10;;;;;;;17.53;4.80;;;;;;;-7.02;95.19;100102.58;5080646;58;1139033;-75
2021/12/25 03:58:19;;;;;;;12.83;4.50;;;;;;;-7.14;95.43;100105.31;4995155;59;1139301;-75
2021/12/25 04:03:41;;;;;;;16.80;5.50;;;;;;;-7.21;95.67;100111.41;4999836;59;1139318;-76
2021/12/25 04:08:34;;;;;;;10.27;4.03;;;;;;;-7.24;95.45;100123.00;5077289;58;1139003;-73
2021/12/25 04:13:38;;;;;;;20.40;5.97;;;;;;;-7.30;95.89;100130.34;5004021;58;1139326;-75
2021/12/25 04:18:44;;;;;;;39.33;12.87;;;;;;;-7.19;96.80;100130.23;5002892;58;1139162;-75
2021/12/25 04:23:50;;;;;;;73.07;22.03;;;;;;;-6.90;97.89;100138.86;5072428;57;1141362;-73
2021/12/25 05:06:05;;;;;;;32.93;10.93;;;;;;;-6.40;95.07;100175.44;4949472;58;1139196;-74
2021/12/25 05:11:13;;;;;;;38.40;13.37;;;;;;;-6.39;94.79;100187.42;4983993;58;1139444;-74
2021/12/25 05:16:21;;;;;;;35.03;11.57;;;;;;;-6.40;94.85;100184.00;4983588;59;1139142;-75
2021/12/25 05:21:27;;;;;;;30.03;9.27;;;;;;;-6.38;94.83;100190.42;4984253;59;1139124;-72
2021/12/25 05:26:35;;;;;;;26.07;8.95;;;;;;;-6.37;94.66;100193.84;4926344;59;1137067;-72
2021/12/25 05:31:41;;;;;;;22.10;10.67;;;;;;;-6.36;94.74;100198.12;4900794;59;1134878;-76
2021/12/25 05:36:49;;;;;;;20.27;9.10;;;;;;;-6.34;94.58;100211.81;4921169;59;1137112;-72
2021/12/25 05:41:59;;;;;;;27.57;12.33;;;;;;;-6.35;94.37;100218.69;4861974;59;1138980;-73
2021/12/25 05:47:06;;;;;;;41.13;15.37;;;;;;;-6.45;93.76;100224.40;4891489;60;1141401;-71
2021/12/25 05:52:14;;;;;;;39.73;15.48;;;;;;;-6.48;93.63;100227.44;4942198;59;1141292;-73
2021/12/25 05:57:31;;;;;;;11.30;4.60;;;;;;;-6.52;93.53;100234.77;4860383;60;1141159;-71
2021/12/25 06:02:49;;;;;;;17.63;5.37;;;;;;;-6.89;91.25;100245.95;4883213;60;1139112;-73
2021/12/25 06:08:03;;;;;;;14.53;3.97;;;;;;;-7.23;91.13;100248.02;4883461;59;1139097;-74
2021/12/25 06:13:16;;;;;;;12.63;4.23;;;;;;;-7.54;91.30;100247.45;5018915;57;1139053;-73
2021/12/25 06:18:19;;;;;;;12.60;4.10;;;;;;;-7.68;92.07;100243.73;5067052;58;1139065;-70
2021/12/25 06:23:29;;;;;;;7.97;3.90;;;;;;;-7.73;92.43;100249.75;5065344;58;1139048;-74
2021/12/25 06:28:42;;;;;;;45.60;18.50;;;;;;;-7.56;93.67;100244.90;5067149;58;1136880;-72
2021/12/25 06:34:00;;;;;;;40.03;12.07;;;;;;;-7.35;94.07;100250.72;5066710;58;1141211;-73
2021/12/25 06:39:15;;;;;;;59.20;21.03;;;;;;;-7.27;93.53;100255.33;5064724;58;1141070;-74
2021/12/25 06:44:27;;;;;;;29.92;11.75;;;;;;;-7.52;91.51;100267.56;5063183;58;1140999;-72
2021/12/25 06:49:33;;;;;;;28.63;10.90;;;;;;;-7.71;91.76;100262.14;5065577;58;1141268;-72
2021/12/25 06:54:57;;;;;;;30.83;12.90;;;;;;;-7.61;92.93;100268.47;5065600;58;1141135;-73
2021/12/25 07:00:06;;;;;;;13.80;4.80;;;;;;;-7.60;92.54;100270.61;5064635;58;1141205;-71
2021/12/25 07:05:12;;;;;;;12.47;6.67;;;;;;;-7.88;91.15;100254.56;5076323;58;1139136;-70
2021/12/25 07:10:35;;;;;;;188.60;60.43;;;;;;;-8.07;90.36;100276.92;5042569;58;1137163;-73
2021/12/25 07:15:43;;;;;;;221.93;74.63;;;;;;;-8.37;90.27;100279.27;4998822;59;1141153;-74
2021/12/25 07:21:03;;;;;;;137.43;49.42;;;;;;;-8.31;92.18;100277.93;4920982;60;1141225;-71
2021/12/25 07:26:17;;;;;;;118.63;40.77;;;;;;;-8.04;93.44;100279.48;4843100;61;1141187;-73
2021/12/25 07:31:25;;;;;;;98.17;32.20;;;;;;;-7.78;93.83;100287.42;4855898;60;1141248;-75
2021/12/25 07:36:31;;;;;;;126.43;43.73;;;;;;;-7.63;93.09;100288.17;4984471;58;1139074;-72
2021/12/25 07:41:37;;;;;;;92.03;30.33;;;;;;;-7.65;92.22;100296.77;4900129;60;1141209;-76
2021/12/25 07:46:45;;;;;;;85.40;26.27;;;;;;;-7.52;93.07;100302.23;4881660;59;1139261;-73
2021/12/25 07:51:50;;;;;;;50.77;14.07;;;;;;;-7.36;93.07;100303.81;4877820;58;1139308;-71
2021/12/25 07:56:56;;;;;;;200.27;53.77;;;;;;;-7.55;91.13;100309.52;4921432;58;1139117;-74
2021/12/25 08:02:01;;;;;;;142.60;46.45;;;;;;;-7.77;90.94;100316.09;4924242;58;1141398;-73
2021/12/25 08:07:07;;;;;;;322.00;66.07;;;;;;;-7.91;91.29;100318.74;4878380;59;1141177;-71
2021/12/25 08:12:13;;;;;;;144.23;32.67;;;;;;;-7.96;91.65;100321.79;4993297;58;1139338;-72
2021/12/25 08:17:18;;;;;;;166.07;46.03;;;;;;;-7.81;93.00;100319.98;4991745;58;1139058;-68
2021/12/25 08:22:41;;;;;;;77.90;26.40;;;;;;;-7.30;95.77;100328.58;4980142;58;1143324;-70
2021/12/25 08:28:05;;;;;;;94.40;26.50;;;;;;;-7.15;93.45;100329.30;4993589;58;1141150;-74
2021/12/25 08:33:28;;;;;;;37.58;10.43;;;;;;;-7.04;93.39;100335.64;4992423;58;1141103;-73
2021/12/25 08:38:38;;;;;;;57.33;22.70;;;;;;;-7.07;92.62;100336.09;4858756;60;1141386;-72
2021/12/25 08:43:49;;;;;;;35.50;11.03;;;;;;;-7.14;92.72;100340.42;4908946;60;1141539;-70
2021/12/25 08:48:54;;;;;;;23.67;9.27;;;;;;;-7.12;92.99;100345.13;4912903;60;1141543;-74
2021/12/25 08:54:00;;;;;;;98.83;25.33;;;;;;;-7.07;93.30;100348.95;4994648;58;1139094;-72
2021/12/25 08:59:05;;;;;;;433.40;152.40;;;;;;;-7.03;93.30;100359.63;4921056;59;1141419;-72
2021/12/25 09:04:11;;;;;;;127.60;34.23;;;;;;;-7.12;93.25;100357.54;5025750;57;1145388;-73
2021/12/25 09:09:17;;;;;;;243.17;66.70;;;;;;;-7.11;94.06;100369.53;4997627;59;1143281;-74
2021/12/25 09:14:23;;;;;;;83.07;26.13;;;;;;;-7.06;94.49;100380.21;5083122;58;1143503;-72
2021/12/25 09:19:29;;;;;;;72.47;27.00;;;;;;;-7.07;93.89;100378.50;5006592;58;1141101;-71
2021/12/25 09:24:34;;;;;;;60.50;22.87;;;;;;;-7.15;94.18;100378.12;4997594;58;1141436;-73
2021/12/25 09:29:40;;;;;;;330.48;80.62;;;;;;;-7.15;94.82;100384.54;5001781;58;1141096;-71
2021/12/25 09:34:45;;;;;;;282.70;131.83;;;;;;;-7.11;95.01;100384.95;5083271;57;1143653;-74
2021/12/25 09:39:51;;;;;;;56.13;17.67;;;;;;;-7.07;95.35;100377.22;4997504;59;1145565;-72
2021/12/25 09:44:58;;;;;;;24.77;8.80;;;;;;;-6.95;96.00;100384.38;5077008;57;1141098;-77
2021/12/25 09:50:04;;;;;;;65.00;17.37;;;;;;;-6.80;96.38;100389.39;5058965;57;1139408;-75
2021/12/25 09:55:12;;;;;;;80.27;15.47;;;;;;;-6.67;96.33;100388.83;4984011;58;1141297;-73
2021/12/25 10:00:22;;;;;;;43.23;9.27;;;;;;;-6.63;96.67;100384.52;4961630;59;1141389;-74
2021/12/25 10:05:47;;;;;;;257.50;61.30;;;;;;;-6.58;96.89;100386.19;5011840;58;1139457;-72
2021/12/25 10:10:58;;;;;;;256.67;93.53;;;;;;;-6.53;97.14;100380.97;4895645;59;1143120;-74
2021/12/25 10:16:29;;;;;;;70.47;23.67;;;;;;;-6.44;97.23;100383.47;4880835;60;1143271;-76
2021/12/25 10:21:35;;;;;;;23.10;8.60;;;;;;;-6.36;97.14;100379.08;4959303;59;1139181;-75
2021/12/25 10:26:44;;;;;;;151.03;28.00;;;;;;;-6.36;97.31;100382.93;4877790;60;1137432;-76
2021/12/25 10:31:54;;;;;;;53.17;12.33;;;;;;;-6.31;97.74;100386.31;4833018;60;1141120;-75
2021/12/25 10:37:12;;;;;;;82.93;19.53;;;;;;;-6.21;97.83;100375.47;4840043;60;1139394;-76
2021/12/25 10:42:23;;;;;;;65.40;14.20;;;;;;;-6.06;98.17;100381.72;4968312;59;1139355;-75
2021/12/25 10:47:31;;;;;;;103.23;22.80;;;;;;;-5.88;98.54;100383.22;5011791;58;1139051;-74
2021/12/25 10:52:43;;;;;;;52.80;13.23;;;;;;;-5.73;98.54;100368.81;4938202;59;1141167;-74
2021/12/25 10:57:54;;;;;;;65.27;19.53;;;;;;;-5.56;98.73;100368.14;4999037;58;1137028;-74
2021/12/25 11:03:07;;;;;;;34.47;9.63;;;;;;;-5.37;98.61;100366.15;5024957;57;1141357;-76
2021/12/25 11:08:16;;;;;;;64.32;25.77;;;;;;;-5.22;98.58;100367.20;5055624;57;1139006;-76
2021/12/25 11:13:35;;;;;;;53.27;21.90;;;;;;;-5.13;98.44;100359.73;4945462;59;1140997;-77
2021/12/25 11:19:27;;;;;;;55.10;23.80;;;;;;;-4.97;98.61;100363.33;4999955;58;1141494;-76
2021/12/25 11:24:26;;;;;;;44.10;15.70;;;;;;;-4.81;98.75;100371.66;5085405;58;1141140;-76
2021/12/25 11:29:34;;;;;;;13.15;6.25;;;;;;;-4.60;98.37;100371.72;5046327;57;1141141;-74
2021/12/25 11:34:40;;;;;;;13.90;5.72;;;;;;;-4.44;97.97;100371.85;4997744;58;1139095;-76
2021/12/25 11:39:54;;;;;;;22.03;6.17;;;;;;;-4.29;98.05;100367.69;5078494;57;1139278;-76
2021/12/25 11:44:56;;;;;;;15.87;6.40;;;;;;;-3.96;96.61;100367.41;5042151;57;1138948;-76
2021/12/25 11:50:06;;;;;;;41.98;11.15;;;;;;;-3.51;95.64;100357.43;5030097;57;1139106;-76
2021/12/25 12:00:53;;;;;;;28.70;8.43;;;;;;;-2.67;95.20;100365.26;5027697;57;1139048;-77
2021/12/25 12:05:59;;;;;;;12.57;5.93;;;;;;;-2.17;94.00;100353.54;4996024;59;1139040;-77
2021/12/25 12:11:04;;;;;;;16.50;5.70;;;;;;;-2.02;89.93;100368.65;5040261;58;1139075;-75
2021/12/25 12:16:48;;;;;;;18.67;7.07;;;;;;;-1.91;88.48;100362.70;5029782;58;1138997;-75
2021/12/25 12:27:40;;;;;;;41.57;18.23;;;;;;;-1.62;86.34;100368.31;5053605;57;1136808;-76
2021/12/25 12:32:47;;;;;;;19.10;6.27;;;;;;;-1.65;85.00;100381.81;4836145;61;1139054;-76
2021/12/25 12:37:53;;;;;;;22.73;8.70;;;;;;;-1.64;83.59;100389.99;4885927;60;1136238;-75
2021/12/25 12:43:02;;;;;;;34.57;15.17;;;;;;;-1.63;82.81;100389.95;4840215;61;1137004;-76
2021/12/25 12:48:23;;;;;;;27.43;10.80;;;;;;;-1.54;84.22;100403.11;4793203;60;1139176;-74
2021/12/25 12:53:33;;;;;;;22.37;10.37;;;;;;;-1.42;82.99;100397.09;4818432;61;1141269;-77
2021/12/25 12:58:39;;;;;;;22.58;8.58;;;;;;;-1.19;82.66;100407.19;4971486;58;1141270;-77
2021/12/25 13:03:45;;;;;;;16.10;7.03;;;;;;;-1.30;80.63;100413.17;4991630;58;1139118;-76
2021/12/25 13:08:52;;;;;;;25.23;7.87;;;;;;;-1.34;79.12;100409.81;4976348;58;1139019;-77
2021/12/25 13:14:00;;;;;;;24.37;9.70;;;;;;;-1.35;80.87;100424.97;4970862;59;1139076;-76
2021/12/25 13:19:08;;;;;;;25.73;9.30;;;;;;;-1.14;81.82;100430.81;5050739;58;1139252;-77
2021/12/25 13:24:16;;;;;;;23.70;10.43;;;;;;;-0.83;80.62;100422.90;5027879;58;1139050;-78
2021/12/25 13:29:24;;;;;;;23.07;9.50;;;;;;;-0.64;81.19;100433.55;5021910;58;1141538;-75
2021/12/25 13:34:30;;;;;;;25.80;11.13;;;;;;;-0.78;80.26;100441.79;5005592;57;1139364;-75
2021/12/25 13:39:39;;;;;;;34.37;13.07;;;;;;;-1.66;80.49;100430.22;5006029;58;1141022;-75
2021/12/25 13:44:46;;;;;;;46.50;24.57;;;;;;;-2.53;81.83;100442.12;4970474;59;1141484;-75
2021/12/25 13:49:59;;;;;;;35.00;14.55;;;;;;;-3.17;84.07;100441.52;4982312;58;1141159;-77
2021/12/25 13:55:16;;;;;;;47.53;18.52;;;;;;;-3.64;85.82;100443.41;4993747;58;1140632;-76
2021/12/25 14:00:31;;;;;;;53.57;16.67;;;;;;;-3.87;87.09;100454.23;4993550;59;1141184;-77
2021/12/25 14:05:45;;;;;;;26.05;8.75;;;;;;;-4.06;87.87;100454.16;4995149;59;1141156;-76
2021/12/25 14:10:59;;;;;;;58.83;14.90;;;;;;;-4.10;88.36;100455.95;5026004;58;1138516;-77
2021/12/25 14:16:01;;;;;;;50.93;14.80;;;;;;;-4.21;88.51;100463.48;5056882;58;1141226;-76
2021/12/25 14:21:17;;;;;;;31.47;10.63;;;;;;;-4.39;88.88;100466.81;5057144;58;1141231;-77
2021/12/25 14:26:22;;;;;;;46.27;14.83;;;;;;;-4.50;89.39;100466.16;5057164;58;1141183;-77
2021/12/25 14:31:28;;;;;;;34.33;13.97;;;;;;;-4.68;89.54;100473.76;5057123;58;1141286;-76
2021/12/25 14:36:40;;;;;;;44.43;13.13;;;;;;;-4.81;89.97;100464.52;5056981;58;1141135;-77
2021/12/25 14:41:48;;;;;;;232.07;54.43;;;;;;;-4.92;90.26;100478.03;5057385;58;1140387;-77
2021/12/25 14:47:10;;;;;;;833.33;222.10;;;;;;;-5.01;90.64;100488.03;4870130;60;1143158;-77
2021/12/25 14:52:19;;;;;;;266.27;54.07;;;;;;;-4.97;90.96;100494.00;4842488;61;1143174;-76
2021/12/25 14:57:28;;;;;;;150.47;33.67;;;;;;;-4.99;90.91;100496.59;4995320;59;1141188;-77
2021/12/25 15:02:34;;;;;;;96.63;26.67;;;;;;;-5.01;90.72;100485.89;5034789;58;1140927;-77
2021/12/25 15:07:42;;;;;;;96.80;25.43;;;;;;;-5.09;90.65;100488.59;5000444;58;1139128;-78
2021/12/25 15:12:48;;;;;;;75.97;17.13;;;;;;;-5.17;90.72;100485.69;5000504;59;1139009;-77
2021/12/25 15:17:54;;;;;;;59.77;15.57;;;;;;;-5.29;90.82;100472.98;4991474;59;1139090;-77
2021/12/25 15:23:00;;;;;;;116.53;34.83;;;;;;;-5.47;91.12;100481.37;4988126;59;1139055;-77
2021/12/25 15:28:07;;;;;;;75.40;18.60;;;;;;;-5.62;91.36;100476.84;5000357;59;1141152;-77
2021/12/25 15:33:13;;;;;;;62.23;19.98;;;;;;;-5.67;91.82;100489.38;5002933;58;1138962;-77
2021/12/25 15:38:30;;;;;;;167.37;51.77;;;;;;;-5.72;92.09;100485.98;5001770;58;1139098;-77
2021/12/25 15:43:36;;;;;;;190.15;69.60;;;;;;;-5.82;91.81;100477.11;5077988;58;1141189;-77
2021/12/25 15:48:43;;;;;;;147.80;64.00;;;;;;;-5.90;92.36;100484.09;5001066;58;1140992;-77
2021/12/25 15:53:59;;;;;;;88.97;41.43;;;;;;;-5.91;92.55;100497.83;4997501;58;1139165;-79
2021/12/25 15:59:17;;;;;;;49.57;17.77;;;;;;;-5.86;92.80;100505.91;4957546;58;1140969;-77
2021/12/25 16:04:25;;;;;;;44.43;20.50;;;;;;;-5.71;92.80;100505.73;4969366;58;1141078;-77
2021/12/25 16:09:30;;;;;;;170.33;80.67;;;;;;;-5.70;92.38;100500.14;4966755;59;1141154;-77
2021/12/25 16:14:37;;;;;;;53.77;24.30;;;;;;;-5.80;91.88;100503.23;5042006;58;1143295;-77
2021/12/25 16:19:46;;;;;;;57.23;19.63;;;;;;;-5.94;91.92;100512.88;4897783;59;1141196;-78
2021/12/25 16:24:52;;;;;;;87.83;23.37;;;;;;;-6.02;92.03;100517.70;4900338;58;1141024;-77
2021/12/25 16:29:58;;;;;;;99.83;28.90;;;;;;;-6.05;92.22;100506.99;4900874;59;1141084;-78
2021/12/25 16:35:04;;;;;;;270.83;83.03;;;;;;;-5.90;93.04;100504.25;4910316;59;1141174;-78
2021/12/25 16:40:11;;;;;;;209.90;59.27;;;;;;;-5.71;93.45;100499.72;5050773;58;1143179;-78
2021/12/25 16:45:17;;;;;;;74.03;25.53;;;;;;;-5.61;92.85;100497.44;4971061;58;1142487;-78
2021/12/25 16:50:29;;;;;;;98.67;33.13;;;;;;;-5.74;91.64;100512.63;4966192;59;1141170;-76
2021/12/25 16:55:31;;;;;;;69.43;21.57;;;;;;;-5.92;91.54;100516.72;4969499;59;1141124;-77
2021/12/25 17:00:39;;;;;;;95.83;30.10;;;;;;;-6.12;91.44;100526.81;5062364;57;1141207;-77
2021/12/25 17:05:49;;;;;;;96.27;38.40;;;;;;;-6.21;91.74;100533.31;5076756;58;1141160;-77
2021/12/25 17:10:55;;;;;;;115.33;43.47;;;;;;;-6.26;92.05;100533.78;5038908;58;1141065;-77
2021/12/25 17:16:01;;;;;;;282.37;74.33;;;;;;;-6.27;92.32;100531.25;4995520;59;1143350;-77
2021/12/25 17:21:07;;;;;;;436.97;121.17;;;;;;;-6.12;92.93;100529.82;4995474;59;1143218;-76
2021/12/25 17:26:13;;;;;;;280.70;111.47;;;;;;;-6.15;92.25;100537.56;4995455;59;1145306;-77
2021/12/25 17:31:19;;;;;;;266.83;105.20;;;;;;;-6.25;92.09;100535.48;4995412;59;1145537;-76
2021/12/25 17:36:25;;;;;;;132.70;50.93;;;;;;;-6.26;92.69;100538.93;4882513;59;1145405;-77
2021/12/25 17:41:35;;;;;;;134.83;52.83;;;;;;;-6.25;92.31;100546.22;5005698;58;1143263;-77
2021/12/25 17:46:40;;;;;;;106.43;43.10;;;;;;;-6.25;92.71;100549.64;4917200;59;1143353;-77
2021/12/25 17:51:47;;;;;;;276.17;78.43;;;;;;;-6.22;92.59;100548.34;5052994;58;1143230;-77
2021/12/25 17:56:55;;;;;;;427.40;112.43;;;;;;;-6.25;92.43;100550.93;5052750;58;1143408;-77
2021/12/25 18:02:00;;;;;;;368.70;90.27;;;;;;;-6.32;92.34;100568.59;5104593;57;1145464;-77
2021/12/25 18:07:06;;;;;;;282.57;74.33;;;;;;;-6.32;92.80;100567.30;5147013;57;1143292;-77
2021/12/25 18:12:18;;;;;;;347.33;88.07;;;;;;;-6.13;93.57;100577.88;5083325;57;1143279;-77
2021/12/25 18:17:19;;;;;;;174.17;47.57;;;;;;;-6.19;92.22;100573.20;5001058;59;1143504;-75
2021/12/25 18:22:25;;;;;;;426.83;126.93;;;;;;;-6.38;91.77;100575.06;5085257;57;1143197;-75
2021/12/25 18:27:31;;;;;;;212.37;64.07;;;;;;;-6.54;92.02;100569.18;5085224;57;1145251;-76
2021/12/25 18:32:37;;;;;;;156.43;66.53;;;;;;;-6.65;92.16;100576.56;5085236;57;1143348;-77
2021/12/25 18:37:43;;;;;;;66.60;21.53;;;;;;;-6.79;92.21;100581.37;5085154;57;1143316;-76
2021/12/25 18:42:50;;;;;;;55.00;16.60;;;;;;;-6.95;92.45;100590.46;5066319;57;1141101;-75
2021/12/25 18:47:56;;;;;;;47.23;15.77;;;;;;;-7.07;92.67;100589.25;4933679;59;1139069;-76
2021/12/25 18:53:03;;;;;;;63.23;19.63;;;;;;;-7.21;92.77;100595.73;5033696;58;1139048;-76
2021/12/25 18:58:09;;;;;;;60.63;20.80;;;;;;;-7.32;92.88;100598.76;5031213;58;1139066;-75
2021/12/25 19:03:17;;;;;;;93.10;36.03;;;;;;;-7.37;92.82;100595.38;5017098;58;1139045;-76
2021/12/25 19:08:24;;;;;;;63.23;21.70;;;;;;;-7.42;93.16;100591.95;5022627;57;1139031;-76
2021/12/25 19:13:30;;;;;;;100.07;29.80;;;;;;;-7.35;93.41;100596.22;5055361;57;1139248;-76
2021/12/25 19:18:36;;;;;;;171.30;48.70;;;;;;;-7.36;93.46;100596.66;5071003;57;1141171;-76
2021/12/25 19:23:42;;;;;;;252.87;80.60;;;;;;;-7.41;93.50;100594.52;5067626;57;1140574;-75
2021/12/25 19:28:48;;;;;;;136.23;49.07;;;;;;;-7.44;93.50;100599.66;5040258;57;1141189;-76
2021/12/25 19:33:54;;;;;;;121.87;44.05;;;;;;;-7.49;93.48;100600.13;5029777;57;1141095;-76
2021/12/25 19:39:00;;;;;;;117.47;33.77;;;;;;;-7.56;93.54;100608.27;5048671;57;1141053;-76
2021/12/25 19:44:07;;;;;;;164.97;49.40;;;;;;;-7.64;93.79;100608.73;5036919;57;1141142;-76
2021/12/25 19:49:13;;;;;;;145.00;39.00;;;;;;;-7.68;93.89;100621.57;5052399;58;1141301;-76
2021/12/25 19:54:19;;;;;;;67.50;24.53;;;;;;;-7.67;93.99;100624.14;5035634;58;1141161;-76
2021/12/25 19:59:25;;;;;;;67.03;20.60;;;;;;;-7.70;94.01;100619.00;5020128;58;1139054;-76
2021/12/25 20:04:31;;;;;;;78.37;27.00;;;;;;;-7.71;94.13;100622.42;5041909;57;1139297;-76
2021/12/25 20:09:37;;;;;;;864.03;378.57;;;;;;;-7.70;94.33;100624.56;5036063;57;1139334;-76
2021/12/25 20:14:44;;;;;;;406.23;145.33;;;;;;;-7.73;94.37;100617.72;5054589;57;1141169;-76
2021/12/25 20:19:50;;;;;;;115.53;43.47;;;;;;;-7.69;94.44;100619.86;5009541;59;21173;-76
2021/12/25 20:24:56;;;;;;;90.80;33.47;;;;;;;-7.71;94.15;100624.14;5029220;57;1139028;-76
2021/12/25 20:30:03;;;;;;;139.43;52.30;;;;;;;-7.78;94.15;100628.41;5045034;58;1141114;-76
2021/12/25 20:35:09;;;;;;;214.13;72.37;;;;;;;-7.82;94.43;100625.45;5073310;58;1143387;-77
2021/12/25 20:40:18;;;;;;;374.37;120.77;;;;;;;-7.85;94.61;100626.30;5079170;58;1143106;-76
2021/12/25 20:50:53;;;;;;;89.67;28.87;;;;;;;-7.86;94.97;100613.04;5079084;58;1143190;-76
2021/12/25 20:56:00;;;;;;;92.40;31.47;;;;;;;-7.79;94.98;100616.89;5078984;58;1141177;-76
2021/12/25 21:01:08;;;;;;;90.50;26.50;;;;;;;-7.83;94.98;100612.19;5078403;58;1141121;-76
2021/12/25 21:06:13;;;;;;;82.42;27.07;;;;;;;-7.87;95.09;100622.02;5050619;58;1141141;-77
2021/12/25 21:11:20;;;;;;;82.60;30.03;;;;;;;-7.90;95.23;100624.16;5048911;58;1141129;-69
2021/12/25 21:16:26;;;;;;;64.00;18.47;;;;;;;-7.89;95.31;100631.43;5046735;58;1141293;-69
2021/12/25 21:21:33;;;;;;;72.73;23.03;;;;;;;-7.87;95.31;100637.00;5046613;58;1141190;-72
2021/12/25 21:26:39;;;;;;;70.73;21.60;;;;;;;-7.90;95.17;100629.30;5020294;58;1141306;-77
2021/12/25 21:31:46;;;;;;;60.20;20.60;;;;;;;-7.97;95.15;100638.30;5032041;58;1141391;-77
2021/12/25 21:36:51;;;;;;;59.63;18.13;;;;;;;-8.00;95.14;100638.30;5019294;58;1141089;-80
2021/12/25 21:41:57;;;;;;;68.83;21.67;;;;;;;-8.02;95.17;100640.86;4978834;59;1141204;-74
2021/12/25 21:47:04;;;;;;;74.47;26.20;;;;;;;-8.02;95.17;100641.28;4978884;59;1141177;-77
2021/12/25 21:52:10;;;;;;;104.23;35.03;;;;;;;-7.95;95.41;100638.73;5012450;58;1141560;-74
2021/12/25 21:57:16;;;;;;;248.17;92.90;;;;;;;-7.94;95.18;100637.84;5029459;58;1143529;-78
2021/12/25 22:02:22;;;;;;;230.70;99.27;;;;;;;-7.94;95.06;100634.42;5015616;58;1143180;-77
2021/12/25 22:07:31;;;;;;;136.20;45.33;;;;;;;-7.98;94.80;100637.88;5050245;58;1143303;-78
2021/12/25 22:12:37;;;;;;;192.27;55.17;;;;;;;-8.03;94.88;100635.30;5017556;57;1143188;-79
2021/12/25 22:17:43;;;;;;;162.23;58.80;;;;;;;-8.05;95.02;100640.85;5073369;57;1143348;-76
2021/12/25 22:22:52;;;;;;;379.73;131.10;;;;;;;-8.07;94.89;100648.12;5067669;57;1143739;-76
2021/12/25 22:28:02;;;;;;;401.77;128.33;;;;;;;-8.10;94.98;100644.30;5070979;57;1145172;-75
2021/12/25 22:33:08;;;;;;;994.17;268.33;;;;;;;-8.12;95.04;100645.58;5058589;57;1145219;-76
2021/12/25 22:38:15;;;;;;;718.37;172.40;;;;;;;-8.13;95.03;100642.58;5062485;58;1145481;-78
2021/12/25 22:43:25;;;;;;;660.37;149.03;;;;;;;-8.15;94.98;100644.28;5058636;58;1145371;-77
2021/12/25 22:48:32;;;;;;;306.10;59.77;;;;;;;-8.19;94.87;100645.12;5059423;58;1145384;-79
2021/12/25 22:53:42;;;;;;;273.13;64.50;;;;;;;-8.20;95.08;100646.84;5058268;58;1143134;-76
2021/12/25 22:58:48;;;;;;;218.93;66.05;;;;;;;-8.11;95.24;100649.00;5059826;58;1141082;-77
2021/12/25 23:04:05;;;;;;;111.93;36.50;;;;;;;-8.09;95.07;100649.39;5060039;58;1141261;-76
2021/12/25 23:09:08;;;;;;;101.18;37.03;;;;;;;-8.13;94.74;100648.14;5060379;58;1141154;-78
2021/12/25 23:14:17;;;;;;;76.63;27.03;;;;;;;-8.20;94.68;100642.98;5058936;58;1141124;-74
2021/12/25 23:19:26;;;;;;;74.13;22.67;;;;;;;-8.19;94.81;100640.86;5070159;58;1139081;-78
2021/12/25 23:24:35;;;;;;;70.72;20.70;;;;;;;-8.16;94.71;100637.44;5070403;58;1139178;-73
2021/12/25 23:29:40;;;;;;;67.47;24.40;;;;;;;-8.17;94.46;100641.72;5064217;58;1139304;-73
2021/12/25 23:34:48;;;;;;;84.30;26.93;;;;;;;-8.22;94.35;100637.42;5070037;58;1139046;-78
2021/12/25 23:39:54;;;;;;;80.37;22.33;;;;;;;-8.33;94.19;100632.34;5062194;58;1139095;-74
2021/12/25 23:45:03;;;;;;;60.53;20.77;;;;;;;-8.41;94.46;100621.23;5059418;58;1139020;-78
2021/12/25 23:50:08;;;;;;;65.67;21.93;;;;;;;-8.37;94.39;100627.19;5059203;58;1139137;-73
2021/12/25 23:55:14;;;;;;;84.47;29.13;;;;;;;-8.41;94.57;100626.36;5059173;58;1139044;-78
